Time;durP1;ratioP1;P1;durP2;ratioP2;P2;SDS_P1;SDS_P2;PMS_P1;PMS_P2;Temp;Humidity;BMP_temperature;BMP_pressure;BME280_temperature;BME280_humidity;BME280_pressure;Samples;Min_cycle;Max_cycle;Signal;HPM_P1;HPM_P2
2023/05/26 00:00:12;;;;;;;;;;;;;;;11.95;100.00;99052.88;4894036;29;19927;-81
2023/05/26 00:02:39;;;;;;;;;;;;;;;11.90;100.00;99042.78;4895736;29;19927;-80
2023/05/26 00:07:52;;;;;;;;;;;;;;;11.84;100.00;99048.34;4895644;29;20034;-79
2023/05/26 00:10:19;;;;;;;;;;;;;;;11.80;100.00;99044.50;4898309;29;19931;-80
2023/05/26 00:12:46;;;;;;;;;;;;;;;11.79;100.00;99056.41;4864870;29;19937;-79
2023/05/26 00:15:13;;;;;;;;;;;;;;;11.88;100.00;99057.63;4860458;29;19928;-78
2023/05/26 00:17:59;;;;;;;;;;;;;;;11.85;100.00;99052.69;4885569;29;20022;-80
2023/05/26 00:20:26;;;;;;;;;;;;;;;11.81;100.00;99048.88;4895292;29;19927;-80
2023/05/26 00:23:12;;;;;;;;;;;;;;;11.75;100.00;99052.56;4895562;29;20407;-80
2023/05/26 00:28:46;;;;;;;;;;;;;;;11.73;100.00;99058.22;4895634;29;19931;-80
2023/05/26 00:31:31;;;;;;;;;;;;;;;11.68;100.00;99058.16;4894700;29;19928;-78
2023/05/26 00:33:58;;;;;;;;;;;;;;;11.62;100.00;99065.41;4894539;29;19931;-79
2023/05/26 00:36:25;;;;;;;;;;;;;;;11.58;100.00;99058.03;4895560;29;19966;-79
2023/05/26 00:38:52;;;;;;;;;;;;;;;11.56;100.00;99063.66;4892555;29;19937;-78
2023/05/26 00:41:19;;;;;;;;;;;;;;;11.49;100.00;99057.63;4890656;29;20023;-78
2023/05/26 00:43:46;;;;;;;;;;;;;;;11.48;100.00;99064.09;4909611;29;19982;-80
2023/05/26 00:48:58;;;;;;;;;;;;;;;11.48;100.00;99062.22;4886566;29;19932;-78
2023/05/26 00:51:25;;;;;;;;;;;;;;;11.46;100.00;99069.75;4883239;29;19927;-79
2023/05/26 00:53:54;;;;;;;;;;;;;;;11.46;100.00;99064.34;4894661;29;19973;-79
2023/05/26 00:56:41;;;;;;;;;;;;;;;11.41;100.00;99063.47;4879506;29;19932;-79
2023/05/26 00:59:09;;;;;;;;;;;;;;;11.35;100.00;99059.88;4894387;29;19934;-78
2023/05/26 01:01:36;;;;;;;;;;;;;;;11.36;100.00;99066.09;4894587;29;20437;-78
2023/05/26 01:09:53;;;;;;;;;;;;;;;11.35;100.00;99069.88;4895046;29;19934;-79
2023/05/26 01:12:25;;;;;;;;;;;;;;;11.31;100.00;99072.22;4910456;29;20372;-78
2023/05/26 01:15:19;;;;;;;;;;;;;;;11.27;100.00;99069.22;4895675;29;19927;-78
2023/05/26 01:17:55;;;;;;;;;;;;;;;11.30;100.00;99069.78;4894778;29;19933;-78
2023/05/26 01:20:40;;;;;;;;;;;;;;;11.33;100.00;99061.19;4910626;29;20006;-78
2023/05/26 01:23:26;;;;;;;;;;;;;;;11.31;100.00;99055.22;4898495;29;20318;-79
2023/05/26 01:26:09;;;;;;;;;;;;;;;11.30;100.00;99056.28;4912666;29;19934;-79
2023/05/26 01:28:36;;;;;;;;;;;;;;;11.25;100.00;99052.44;4915691;29;19927;-79
2023/05/26 01:31:02;;;;;;;;;;;;;;;11.26;100.00;99053.25;4915377;29;20373;-78
2023/05/26 01:33:29;;;;;;;;;;;;;;;11.25;100.00;99057.84;4915144;29;19931;-79
2023/05/26 01:35:56;;;;;;;;;;;;;;;11.27;100.00;99063.81;4915067;29;19949;-79
2023/05/26 01:38:23;;;;;;;;;;;;;;;11.26;100.00;99064.84;4898971;29;19927;-80
2023/05/26 01:40:52;;;;;;;;;;;;;;;11.27;100.00;99060.31;4915088;29;19926;-82
2023/05/26 01:43:27;;;;;;;;;;;;;;;11.28;100.00;99060.03;4905037;29;19934;-80
2023/05/26 01:46:07;;;;;;;;;;;;;;;11.27;100.00;99063.81;4881283;29;19935;-80
2023/05/26 01:48:34;;;;;;;;;;;;;;;11.30;100.00;99061.69;4879307;29;19953;-82
2023/05/26 01:51:02;;;;;;;;;;;;;;;11.38;100.00;99066.66;4898557;29;19974;-81
2023/05/26 01:53:30;;;;;;;;;;;;;;;11.52;100.00;99070.66;4897214;29;20018;-81
2023/05/26 01:56:00;;;;;;;;;;;;;;;11.82;100.00;99069.41;4892538;29;20162;-77
2023/05/26 01:58:26;;;;;;;;;;;;;;;11.93;100.00;99068.53;4895662;29;20026;-78
2023/05/26 02:00:53;;;;;;;;;;;;;;;11.98;100.00;99071.28;4880444;29;20008;-78
2023/05/26 02:03:20;;;;;;;;;;;;;;;11.96;100.00;99073.41;4897040;29;20387;-79
2023/05/26 02:05:48;;;;;;;;;;;;;;;11.98;100.00;99070.47;4897177;29;20493;-80
2023/05/26 02:08:15;;;;;;;;;;;;;;;11.97;100.00;99066.94;4896694;29;19927;-80
2023/05/26 02:10:42;;;;;;;;;;;;;;;11.86;100.00;99062.44;4896738;29;20413;-79
2023/05/26 02:13:09;;;;;;;;;;;;;;;11.75;100.00;99071.47;4898025;29;19935;-79
2023/05/26 02:15:36;;;;;;;;;;;;;;;11.71;100.00;99065.78;4896650;29;19927;-79
2023/05/26 02:18:03;;;;;;;;;;;;;;;11.76;100.00;99063.13;4898085;29;19961;-79
2023/05/26 02:20:30;;;;;;;;;;;;;;;11.80;100.00;99077.78;4897794;29;19962;-79
2023/05/26 02:22:57;;;;;;;;;;;;;;;11.83;100.00;99071.06;4896506;29;20295;-80
2023/05/26 02:25:24;;;;;;;;;;;;;;;11.85;100.00;99080.56;4897282;29;19928;-80
2023/05/26 02:27:51;;;;;;;;;;;;;;;11.88;100.00;99071.16;4897716;29;19931;-81
2023/05/26 02:30:18;;;;;;;;;;;;;;;11.93;100.00;99085.56;4896252;29;19933;-79
2023/05/26 02:32:45;;;;;;;;;;;;;;;11.97;100.00;99083.16;4896250;29;19981;-78
2023/05/26 02:35:12;;;;;;;;;;;;;;;12.02;100.00;99077.81;4897426;29;19927;-80
2023/05/26 02:37:41;;;;;;;;;;;;;;;12.10;100.00;99087.38;4897655;29;20378;-79
2023/05/26 02:40:09;;;;;;;;;;;;;;;12.19;100.00;99082.34;4896182;29;19933;-80
2023/05/26 02:42:36;;;;;;;;;;;;;;;12.28;100.00;99083.50;4897407;29;19934;-79
2023/05/26 02:45:03;;;;;;;;;;;;;;;12.36;100.00;99085.78;4897402;29;19933;-79
2023/05/26 02:47:33;;;;;;;;;;;;;;;12.43;100.00;99088.28;4897379;29;19927;-80
2023/05/26 02:50:01;;;;;;;;;;;;;;;12.49;100.00;99088.09;4897233;29;19927;-78
2023/05/26 02:52:31;;;;;;;;;;;;;;;12.55;100.00;99089.75;4895882;29;20359;-79
2023/05/26 02:54:58;;;;;;;;;;;;;;;12.63;100.00;99087.66;4897237;29;20021;-80
2023/05/26 02:57:25;;;;;;;;;;;;;;;12.70;100.00;99091.81;4896912;29;19927;-79
2023/05/26 02:59:53;;;;;;;;;;;;;;;12.77;100.00;99087.00;4897128;29;20358;-80
2023/05/26 03:02:20;;;;;;;;;;;;;;;12.87;100.00;99088.19;4895165;29;20417;-79
2023/05/26 03:04:47;;;;;;;;;;;;;;;12.96;100.00;99094.75;4878369;29;19928;-80
2023/05/26 03:07:16;;;;;;;;;;;;;;;13.07;100.00;99098.38;4888791;29;19967;-79
2023/05/26 03:09:44;;;;;;;;;;;;;;;13.18;100.00;99094.66;4895562;29;20426;-80
2023/05/26 03:12:15;;;;;;;;;;;;;;;13.27;100.00;99095.84;4895120;29;19955;-80
2023/05/26 03:14:43;;;;;;;;;;;;;;;13.38;100.00;99094.84;4895521;29;19959;-80
2023/05/26 03:17:10;;;;;;;;;;;;;;;13.51;100.00;99095.47;4895282;29;19935;-79
2023/05/26 03:19:38;;;;;;;;;;;;;;;13.61;100.00;99095.53;4895203;29;19928;-80
2023/05/26 03:22:05;;;;;;;;;;;;;;;13.70;100.00;99099.38;4894968;29;20347;-79
2023/05/26 03:24:52;;;;;;;;;;;;;;;13.83;100.00;99109.75;4895117;29;20332;-80
2023/05/26 03:27:23;;;;;;;;;;;;;;;13.96;99.88;99115.81;4895130;29;19931;-80
2023/05/26 03:29:52;;;;;;;;;;;;;;;14.06;99.60;99116.66;4895081;29;20026;-80
2023/05/26 03:32:19;;;;;;;;;;;;;;;14.16;98.96;99107.75;4894973;29;19927;-80
2023/05/26 03:34:46;;;;;;;;;;;;;;;14.23;98.78;99104.75;4896520;29;20432;-79
2023/05/26 03:37:13;;;;;;;;;;;;;;;14.31;98.42;99115.13;4894792;29;19939;-80
2023/05/26 03:39:43;;;;;;;;;;;;;;;14.39;98.07;99109.19;4864279;29;20018;-79
2023/05/26 03:42:11;;;;;;;;;;;;;;;14.52;97.43;99118.72;4910592;29;20347;-80
2023/05/26 03:44:41;;;;;;;;;;;;;;;14.65;97.05;99120.13;4879030;29;19954;-80
2023/05/26 03:47:09;;;;;;;;;;;;;;;14.81;96.34;99113.66;4894969;29;20413;-80
2023/05/26 03:49:37;;;;;;;;;;;;;;;14.95;95.93;99108.50;4910910;29;19934;-80
2023/05/26 03:52:04;;;;;;;;;;;;;;;15.07;95.37;99122.66;4911122;29;20401;-79
2023/05/26 03:54:31;;;;;;;;;;;;;;;15.21;94.77;99111.22;4910323;29;20307;-81
2023/05/26 03:56:58;;;;;;;;;;;;;;;15.34;94.46;99107.94;4910587;29;19970;-79
2023/05/26 03:59:25;;;;;;;;;;;;;;;15.47;94.16;99112.84;4894718;29;19975;-80
2023/05/26 04:01:52;;;;;;;;;;;;;;;15.59;93.64;99113.34;4895996;29;20302;-80
2023/05/26 04:04:38;;;;;;;;;;;;;;;15.72;93.27;99108.47;4909563;29;19955;-79
2023/05/26 04:07:05;;;;;;;;;;;;;;;15.87;92.67;99115.78;4894773;29;19935;-80
2023/05/26 04:09:32;;;;;;;;;;;;;;;15.97;92.30;99107.59;4878895;29;19980;-81
2023/05/26 04:12:00;;;;;;;;;;;;;;;16.07;91.52;99104.00;4878970;29;20046;-80
2023/05/26 04:17:13;;;;;;;;;;;;;;;16.32;90.22;99101.19;4895600;29;19958;-80
2023/05/26 04:19:59;;;;;;;;;;;;;;;16.39;89.34;99106.34;4894463;29;19927;-81
2023/05/26 04:22:47;;;;;;;;;;;;;;;16.45;85.16;99106.00;4893946;29;19935;-82
2023/05/26 04:25:16;;;;;;;;;;;;;;;16.56;81.79;99108.66;4895167;29;20410;-80
2023/05/26 04:27:58;;;;;;;;;;;;;;;16.69;80.24;99110.78;4894329;29;19960;-79
2023/05/26 04:30:38;;;;;;;;;;;;;;;16.80;79.40;99114.28;4878514;29;20386;-80
2023/05/26 04:33:29;;;;;;;;;;;;;;;16.94;79.43;99111.72;4893816;29;20027;-80
2023/05/26 04:36:25;;;;;;;;;;;;;;;17.02;76.87;99114.69;4876092;29;19928;-81
2023/05/26 04:38:54;;;;;;;;;;;;;;;17.10;75.17;99116.78;4910358;29;19937;-81
2023/05/26 04:41:21;;;;;;;;;;;;;;;17.20;74.01;99126.00;4895178;29;19927;-81
2023/05/26 04:43:48;;;;;;;;;;;;;;;17.25;73.37;99123.25;4895834;29;20300;-80
2023/05/26 04:46:16;;;;;;;;;;;;;;;17.34;73.07;99124.22;4893878;29;20033;-80
2023/05/26 04:48:43;;;;;;;;;;;;;;;17.44;72.75;99121.41;4894325;29;19934;-80
2023/05/26 04:51:10;;;;;;;;;;;;;;;17.47;71.97;99120.84;4894919;29;19928;-80
2023/05/26 04:53:38;;;;;;;;;;;;;;;17.56;71.43;99123.75;4879199;29;19927;-81
2023/05/26 04:56:07;;;;;;;;;;;;;;;17.69;71.32;99123.09;4896063;29;20311;-81
2023/05/26 04:58:39;;;;;;;;;;;;;;;17.80;70.95;99120.28;4898329;29;19927;-81
2023/05/26 05:01:07;;;;;;;;;;;;;;;17.91;70.67;99124.53;4897596;29;20025;-81
2023/05/26 05:04:08;;;;;;;;;;;;;;;17.96;70.06;99119.03;4894353;29;19935;-81
2023/05/26 05:06:41;;;;;;;;;;;;;;;18.03;69.91;99116.75;4881868;29;19928;-81
2023/05/26 05:09:08;;;;;;;;;;;;;;;18.12;69.74;99125.91;4897549;29;19934;-81
2023/05/26 05:11:35;;;;;;;;;;;;;;;18.23;69.09;99129.38;4897042;29;19938;-81
2023/05/26 05:14:03;;;;;;;;;;;;;;;18.30;68.32;99135.25;4897456;29;19935;-80
2023/05/26 05:19:15;;;;;;;;;;;;;;;18.46;66.94;99135.91;4891661;29;19928;-82
2023/05/26 05:21:48;;;;;;;;;;;;;;;18.53;66.26;99141.00;4899888;29;19927;-80
2023/05/26 05:24:15;;;;;;;;;;;;;;;18.56;65.60;99133.03;4901494;29;19998;-80
2023/05/26 05:26:42;;;;;;;;;;;;;;;18.60;65.33;99142.25;4892622;29;19947;-82
2023/05/26 05:29:14;;;;;;;;;;;;;;;18.71;65.13;99131.19;4690555;29;10000425;-80
2023/05/26 05:31:43;;;;;;;;;;;;;;;18.82;64.65;99133.50;4891847;29;19934;-81
2023/05/26 05:34:11;;;;;;;;;;;;;;;18.90;64.05;99136.69;4896194;29;20047;-81
2023/05/26 05:36:38;;;;;;;;;;;;;;;18.98;63.96;99142.28;4871972;29;19927;-81
2023/05/26 05:39:05;;;;;;;;;;;;;;;19.11;63.68;99138.00;4890385;29;20038;-81
2023/05/26 05:41:32;;;;;;;;;;;;;;;19.13;62.94;99137.72;4890839;29;20018;-80
2023/05/26 05:43:59;;;;;;;;;;;;;;;19.21;63.07;99131.56;4900743;29;20556;-81
2023/05/26 05:46:26;;;;;;;;;;;;;;;19.26;62.50;99132.28;4867244;29;20022;-81
2023/05/26 05:49:15;;;;;;;;;;;;;;;19.35;62.21;99132.41;4886476;29;20434;-81
2023/05/26 05:51:46;;;;;;;;;;;;;;;19.39;61.63;99130.69;4874625;29;19931;-81
2023/05/26 05:54:16;;;;;;;;;;;;;;;19.50;61.65;99131.34;4889636;29;19927;-81
2023/05/26 05:56:44;;;;;;;;;;;;;;;19.63;60.66;99132.50;4893069;29;19955;-81
2023/05/26 05:59:14;;;;;;;;;;;;;;;19.67;59.81;99136.28;4883648;29;19927;-80
2023/05/26 06:01:42;;;;;;;;;;;;;;;19.77;59.34;99133.34;4884806;29;20105;-82
2023/05/26 06:04:09;;;;;;;;;;;;;;;19.93;59.51;99122.94;4874303;29;20315;-81
2023/05/26 06:06:46;;;;;;;;;;;;;;;20.08;59.69;99128.13;4881868;29;19934;-81
2023/05/26 06:09:13;;;;;;;;;;;;;;;20.15;59.86;99122.22;4892224;29;19935;-81
2023/05/26 06:11:40;;;;;;;;;;;;;;;20.16;58.60;99123.03;4883412;29;19931;-81
2023/05/26 06:14:07;;;;;;;;;;;;;;;20.15;58.06;99124.94;4875791;29;19962;-83
2023/05/26 06:16:35;;;;;;;;;;;;;;;20.17;57.96;99116.44;4875900;29;20007;-80
2023/05/26 06:19:02;;;;;;;;;;;;;;;20.20;57.64;99116.63;4867653;29;20463;-80
2023/05/26 06:21:29;;;;;;;;;;;;;;;20.24;57.77;99114.09;4889687;29;20423;-79
2023/05/26 06:23:59;;;;;;;;;;;;;;;20.39;57.65;99112.97;4889207;29;19990;-79
2023/05/26 06:26:26;;;;;;;;;;;;;;;20.37;57.09;99117.94;4883302;29;20014;-81
2023/05/26 06:31:40;;;;;;;;;;;;;;;20.38;56.24;99117.63;4898162;29;19928;-79
2023/05/26 06:34:16;;;;;;;;;;;;;;;20.49;56.04;99120.97;4881817;29;19975;-78
2023/05/26 06:36:44;;;;;;;;;;;;;;;20.70;56.68;99124.91;4908345;29;19927;-79
2023/05/26 06:39:11;;;;;;;;;;;;;;;20.93;56.60;99122.19;4892527;29;19938;-79
2023/05/26 06:41:38;;;;;;;;;;;;;;;21.00;53.13;99125.34;4893151;29;19982;-79
2023/05/26 06:44:06;;;;;;;;;;;;;;;20.89;51.48;99122.03;4871578;29;19979;-79
2023/05/26 06:46:33;;;;;;;;;;;;;;;20.94;51.48;99130.13;4883562;29;20040;-79
2023/05/26 06:49:01;;;;;;;;;;;;;;;20.98;51.42;99131.13;4889474;29;19927;-79
2023/05/26 06:52:03;;;;;;;;;;;;;;;21.02;50.36;99131.31;4889245;29;19927;-79
2023/05/26 06:54:30;;;;;;;;;;;;;;;21.09;49.66;99131.72;4881244;29;19927;-79
2023/05/26 06:56:57;;;;;;;;;;;;;;;21.19;49.14;99133.38;4881869;29;19985;-79
2023/05/26 06:59:27;;;;;;;;;;;;;;;21.18;46.89;99140.00;4892665;29;19928;-79
2023/05/26 07:02:01;;;;;;;;;;;;;;;21.20;44.83;99144.06;4886854;29;19928;-77
2023/05/26 07:04:28;;;;;;;;;;;;;;;21.31;44.36;99130.88;4898222;29;19951;-80
2023/05/26 07:06:56;;;;;;;;;;;;;;;21.38;42.31;99133.19;4906863;29;19927;-80
2023/05/26 07:09:23;;;;;;;;;;;;;;;21.51;42.57;99140.56;4891660;29;19931;-78
2023/05/26 07:11:54;;;;;;;;;;;;;;;21.55;43.05;99138.03;4889870;29;19971;-80
2023/05/26 07:14:42;;;;;;;;;;;;;;;21.61;42.73;99132.06;4890286;29;19927;-79
2023/05/26 07:17:10;;;;;;;;;;;;;;;21.74;41.87;99138.59;4890952;29;20000;-80
2023/05/26 07:19:39;;;;;;;;;;;;;;;21.83;41.13;99135.91;4906721;29;19966;-80
2023/05/26 07:22:06;;;;;;;;;;;;;;;21.89;40.83;99137.38;4875969;29;19974;-81
2023/05/26 07:24:37;;;;;;;;;;;;;;;22.01;41.91;99139.53;4882928;29;20435;-80
2023/05/26 07:27:06;;;;;;;;;;;;;;;22.18;41.99;99142.38;4873061;29;19932;-80
2023/05/26 07:29:34;;;;;;;;;;;;;;;22.02;41.85;99139.22;4875910;29;19927;-79
2023/05/26 07:32:01;;;;;;;;;;;;;;;22.03;41.46;99140.84;4891456;29;19963;-80
2023/05/26 07:34:28;;;;;;;;;;;;;;;22.20;41.48;99150.31;4884162;29;20477;-79
2023/05/26 07:36:55;;;;;;;;;;;;;;;22.33;41.44;99146.63;4887648;29;19928;-78
2023/05/26 07:39:22;;;;;;;;;;;;;;;22.43;41.80;99129.84;4886102;29;19928;-79
2023/05/26 07:41:49;;;;;;;;;;;;;;;22.62;42.41;99139.75;4887914;29;20026;-80
2023/05/26 07:44:17;;;;;;;;;;;;;;;22.85;42.14;99146.72;4870051;29;20038;-79
2023/05/26 07:46:44;;;;;;;;;;;;;;;22.96;41.56;99146.41;4881214;29;19963;-79
2023/05/26 07:49:11;;;;;;;;;;;;;;;22.85;41.43;99149.47;4873731;29;19935;-79
2023/05/26 07:51:38;;;;;;;;;;;;;;;23.01;41.14;99144.34;4879183;29;19949;-80
2023/05/26 07:54:05;;;;;;;;;;;;;;;22.91;41.81;99139.13;4884703;29;19983;-79
2023/05/26 07:56:32;;;;;;;;;;;;;;;23.11;41.53;99133.00;4881148;29;19928;-79
2023/05/26 07:58:58;;;;;;;;;;;;;;;23.25;41.40;99135.59;4877653;29;19927;-79
2023/05/26 08:01:25;;;;;;;;;;;;;;;23.72;41.39;99132.91;4892768;29;19927;-79
2023/05/26 08:03:52;;;;;;;;;;;;;;;23.97;40.64;99131.22;4884838;29;19932;-80
2023/05/26 08:06:19;;;;;;;;;;;;;;;24.22;40.49;99132.25;4895165;29;19950;-80
2023/05/26 08:08:53;;;;;;;;;;;;;;;24.19;39.04;99129.34;4894856;29;20359;-80
2023/05/26 08:11:21;;;;;;;;;;;;;;;24.17;38.77;99126.91;4895424;29;19927;-80
2023/05/26 08:13:48;;;;;;;;;;;;;;;24.30;39.15;99115.97;4889930;29;19990;-79
2023/05/26 08:16:33;;;;;;;;;;;;;;;24.21;38.48;99121.56;4888156;29;20383;-79
2023/05/26 08:19:01;;;;;;;;;;;;;;;24.05;39.48;99129.56;4885181;29;20063;-79
2023/05/26 08:21:27;;;;;;;;;;;;;;;24.19;39.39;99121.88;4893039;29;19931;-80
2023/05/26 08:23:54;;;;;;;;;;;;;;;24.50;39.50;99128.22;4884726;29;19928;-80
2023/05/26 08:26:21;;;;;;;;;;;;;;;24.84;38.72;99124.44;4880395;29;20043;-80
2023/05/26 08:28:48;;;;;;;;;;;;;;;25.32;38.58;99119.47;4883299;29;19934;-80
2023/05/26 08:31:15;;;;;;;;;;;;;;;25.81;38.19;99123.19;4879005;29;20375;-79
2023/05/26 08:33:42;;;;;;;;;;;;;;;25.89;37.27;99130.59;4879239;29;19928;-80
2023/05/26 08:36:28;;;;;;;;;;;;;;;25.43;38.21;99123.44;4894816;29;20401;-79
2023/05/26 08:38:55;;;;;;;;;;;;;;;25.94;37.92;99121.28;4886320;29;19935;-79
2023/05/26 08:41:22;;;;;;;;;;;;;;;26.63;37.13;99114.00;4889287;29;19926;-79
2023/05/26 08:43:49;;;;;;;;;;;;;;;27.12;36.38;99113.88;4896209;29;19927;-80
2023/05/26 08:46:32;;;;;;;;;;;;;;;26.16;36.11;99117.25;4885445;29;19934;-80
2023/05/26 08:48:59;;;;;;;;;;;;;;;25.74;36.84;99118.22;4906762;29;19928;-80
2023/05/26 08:51:26;;;;;;;;;;;;;;;25.73;37.12;99119.38;4885961;29;20006;-82
2023/05/26 08:53:52;;;;;;;;;;;;;;;26.24;36.86;99124.63;4883923;29;19931;-82
2023/05/26 08:56:21;;;;;;;;;;;;;;;26.84;36.93;99115.78;4888131;29;20383;-81
2023/05/26 08:58:47;;;;;;;;;;;;;;;27.19;36.53;99122.41;4882704;29;19927;-81
2023/05/26 09:01:14;;;;;;;;;;;;;;;27.62;34.09;99118.00;4878780;29;20291;-82
2023/05/26 09:03:41;;;;;;;;;;;;;;;27.95;33.34;99111.34;4879985;29;19984;-81
2023/05/26 09:06:08;;;;;;;;;;;;;;;28.19;32.05;99112.34;4883506;29;19983;-81
2023/05/26 09:08:35;;;;;;;;;;;;;;;27.78;32.32;99106.97;4898403;29;19949;-81
2023/05/26 09:11:18;;;;;;;;;;;;;;;28.15;32.09;99103.13;4898660;29;19934;-81
2023/05/26 09:13:46;;;;;;;;;;;;;;;28.80;31.59;99103.44;4898430;29;20014;-82
2023/05/26 09:16:13;;;;;;;;;;;;;;;28.59;31.15;99097.41;4897002;29;19931;-82
2023/05/26 09:18:43;;;;;;;;;;;;;;;27.00;33.62;99100.06;4882433;29;20401;-81
2023/05/26 09:21:10;;;;;;;;;;;;;;;25.83;35.15;99087.72;4898407;29;19962;-81
2023/05/26 09:23:37;;;;;;;;;;;;;;;24.97;35.86;99092.97;4897079;29;19983;-81
2023/05/26 09:26:06;;;;;;;;;;;;;;;25.54;34.90;99087.91;4898725;29;19934;-81
2023/05/26 09:28:32;;;;;;;;;;;;;;;27.46;32.73;99089.47;4898517;29;19927;-81
2023/05/26 09:33:48;;;;;;;;;;;;;;;28.65;31.29;99082.09;4897359;29;19927;-82
2023/05/26 09:36:15;;;;;;;;;;;;;;;27.82;32.21;99084.88;4898225;29;19934;-80
2023/05/26 09:38:42;;;;;;;;;;;;;;;28.16;30.90;99086.13;4898494;29;20279;-82
2023/05/26 09:41:09;;;;;;;;;;;;;;;27.85;31.57;99073.06;4897639;29;19927;-81
2023/05/26 09:43:57;;;;;;;;;;;;;;;29.08;30.72;99071.91;4897272;29;20335;-81
2023/05/26 09:46:24;;;;;;;;;;;;;;;29.42;31.08;99070.16;4897776;29;20420;-81
2023/05/26 09:48:51;;;;;;;;;;;;;;;30.11;29.81;99069.38;4898272;29;19927;-82
2023/05/26 09:51:19;;;;;;;;;;;;;;;30.90;28.99;99062.16;4897653;29;19974;-81
2023/05/26 09:53:50;;;;;;;;;;;;;;;31.31;28.04;99060.22;4898006;29;19927;-81
2023/05/26 09:56:18;;;;;;;;;;;;;;;29.55;29.39;99062.47;4896322;29;19927;-81
2023/05/26 09:58:54;;;;;;;;;;;;;;;29.19;29.32;99066.53;4897956;29;19975;-81
2023/05/26 10:01:21;;;;;;;;;;;;;;;29.48;29.62;99063.13;4895797;29;19955;-81
2023/05/26 10:03:48;;;;;;;;;;;;;;;30.26;28.40;99067.63;4897685;29;20030;-83
2023/05/26 10:06:15;;;;;;;;;;;;;;;30.73;27.32;99063.50;4896176;29;19934;-81
2023/05/26 10:08:43;;;;;;;;;;;;;;;30.77;27.41;99058.78;4880831;29;20398;-81
2023/05/26 10:11:10;;;;;;;;;;;;;;;31.21;27.42;99061.69;4895168;29;19958;-81
2023/05/26 10:13:37;;;;;;;;;;;;;;;31.31;26.98;99055.44;4892194;29;19928;-82
2023/05/26 10:16:04;;;;;;;;;;;;;;;31.29;26.29;99057.81;4896215;29;19938;-82
2023/05/26 10:18:31;;;;;;;;;;;;;;;30.87;26.79;99069.28;4885481;29;19934;-82
2023/05/26 10:20:59;;;;;;;;;;;;;;;30.45;27.15;99064.72;4883525;29;19966;-82
2023/05/26 10:23:28;;;;;;;;;;;;;;;28.76;28.82;99071.22;4887814;29;19962;-82
2023/05/26 10:26:00;;;;;;;;;;;;;;;29.61;28.22;99063.75;4877398;29;20094;-81
2023/05/26 10:28:42;;;;;;;;;;;;;;;30.14;27.54;99057.50;4886914;29;19927;-80
2023/05/26 10:31:09;;;;;;;;;;;;;;;31.12;26.70;99049.25;4877656;29;20034;-81
2023/05/26 10:33:43;;;;;;;;;;;;;;;32.56;25.88;99058.50;4878911;29;19928;-81
2023/05/26 10:36:13;;;;;;;;;;;;;;;32.55;24.54;99051.28;4878732;29;20610;-82
2023/05/26 10:38:59;;;;;;;;;;;;;;;32.90;24.69;99049.06;4879721;29;20614;-81
2023/05/26 10:41:34;;;;;;;;;;;;;;;32.55;25.82;99045.69;4887198;29;19990;-81
2023/05/26 10:44:01;;;;;;;;;;;;;;;33.37;24.32;99044.41;4886940;29;19927;-81
2023/05/26 10:46:47;;;;;;;;;;;;;;;33.15;24.24;99040.78;4544965;29;10000476;-81
2023/05/26 10:49:21;;;;;;;;;;;;;;;33.66;24.08;99034.06;4857983;29;19934;-81
2023/05/26 10:51:49;;;;;;;;;;;;;;;30.77;25.82;99030.94;4889050;29;19928;-81
2023/05/26 10:54:18;;;;;;;;;;;;;;;29.39;27.71;99027.22;4882502;29;19927;-81
2023/05/26 10:56:46;;;;;;;;;;;;;;;29.16;28.27;99029.19;4875498;29;19970;-81
2023/05/26 10:59:20;;;;;;;;;;;;;;;28.52;29.24;99029.47;4872951;29;19938;-81
2023/05/26 11:01:53;;;;;;;;;;;;;;;27.96;29.69;99037.31;4874506;29;19950;-80
2023/05/26 11:04:21;;;;;;;;;;;;;;;27.25;30.11;99030.75;4881126;29;20015;-81
2023/05/26 11:06:52;;;;;;;;;;;;;;;26.89;30.93;99041.63;4882572;29;20375;-82
2023/05/26 11:09:22;;;;;;;;;;;;;;;26.78;31.20;99032.19;4882617;29;19933;-81
2023/05/26 11:11:50;;;;;;;;;;;;;;;26.56;31.50;99028.00;4885712;29;20373;-82
2023/05/26 11:14:21;;;;;;;;;;;;;;;26.53;31.19;99031.47;4874095;29;19928;-82
2023/05/26 11:16:48;;;;;;;;;;;;;;;26.14;31.84;99039.38;4888710;29;19975;-81
2023/05/26 11:19:15;;;;;;;;;;;;;;;25.80;32.54;99038.66;4883711;29;19928;-81
2023/05/26 11:21:42;;;;;;;;;;;;;;;25.76;32.58;99029.44;4882058;29;20006;-80
2023/05/26 11:24:09;;;;;;;;;;;;;;;25.66;32.83;99022.41;4885821;29;19927;-80
2023/05/26 11:26:36;;;;;;;;;;;;;;;25.46;32.86;99028.84;4892502;29;19928;-80
2023/05/26 11:29:03;;;;;;;;;;;;;;;25.33;33.14;99028.00;4879906;29;19927;-81
2023/05/26 11:31:30;;;;;;;;;;;;;;;25.24;33.09;99035.56;4883608;29;19983;-80
2023/05/26 11:33:58;;;;;;;;;;;;;;;25.37;33.44;99028.13;4884971;29;19931;-80
2023/05/26 11:36:24;;;;;;;;;;;;;;;25.48;33.08;99030.09;4884168;29;20313;-81
2023/05/26 11:38:56;;;;;;;;;;;;;;;25.54;33.44;99029.88;4890569;29;20053;-81
2023/05/26 11:41:26;;;;;;;;;;;;;;;25.69;34.10;99023.66;4880797;29;20425;-81
2023/05/26 11:43:53;;;;;;;;;;;;;;;25.79;33.96;99028.75;4888069;29;19943;-80
2023/05/26 11:46:20;;;;;;;;;;;;;;;25.86;34.50;99025.44;4885950;29;19975;-81
2023/05/26 11:48:47;;;;;;;;;;;;;;;25.96;34.35;99033.28;4884654;29;19928;-81
2023/05/26 11:51:15;;;;;;;;;;;;;;;26.01;34.67;99026.72;4876731;29;19927;-80
2023/05/26 11:53:42;;;;;;;;;;;;;;;26.80;34.01;99025.16;4892740;29;19928;-80
2023/05/26 11:56:10;;;;;;;;;;;;;;;27.12;33.83;99018.88;4886216;29;19999;-80
2023/05/26 11:58:40;;;;;;;;;;;;;;;27.63;33.12;99019.84;4877632;29;19927;-81
2023/05/26 12:01:07;;;;;;;;;;;;;;;29.14;31.54;99012.91;4894710;29;19934;-81
2023/05/26 12:03:36;;;;;;;;;;;;;;;29.76;30.80;99012.00;4889523;29;19932;-81
2023/05/26 12:06:10;;;;;;;;;;;;;;;31.22;29.20;99009.53;4879011;29;19974;-81
2023/05/26 12:08:47;;;;;;;;;;;;;;;32.48;27.02;99008.53;4892637;29;20413;-81
2023/05/26 12:11:13;;;;;;;;;;;;;;;33.38;25.82;99009.66;4876139;29;19938;-80
2023/05/26 12:13:40;;;;;;;;;;;;;;;34.33;25.05;99012.00;4878299;29;19943;-80
2023/05/26 12:19:06;;;;;;;;;;;;;;;34.98;23.62;99001.34;4880647;29;20397;-80
2023/05/26 12:21:44;;;;;;;;;;;;;;;32.53;25.17;98997.00;4894002;29;19974;-81
2023/05/26 12:24:11;;;;;;;;;;;;;;;31.22;26.27;98995.59;4885570;29;19973;-80
2023/05/26 12:26:38;;;;;;;;;;;;;;;31.00;26.57;98995.41;4882246;29;19927;-81
2023/05/26 12:29:15;;;;;;;;;;;;;;;30.83;26.76;98998.78;4885529;29;20032;-82
2023/05/26 12:31:42;;;;;;;;;;;;;;;33.02;24.80;98998.41;4876961;29;19928;-81
2023/05/26 12:34:10;;;;;;;;;;;;;;;34.82;23.27;98997.03;4877326;29;19927;-82
2023/05/26 12:36:37;;;;;;;;;;;;;;;36.27;22.17;98986.31;4881703;29;19927;-81
2023/05/26 12:39:04;;;;;;;;;;;;;;;37.09;21.33;98985.28;4884290;29;20410;-80
2023/05/26 12:41:31;;;;;;;;;;;;;;;37.63;21.12;98981.63;4865803;29;20288;-80
2023/05/26 12:44:00;;;;;;;;;;;;;;;38.24;20.68;98986.97;4876651;29;19927;-81
2023/05/26 12:46:28;;;;;;;;;;;;;;;39.11;20.21;98992.41;4876294;29;19978;-80
2023/05/26 12:48:55;;;;;;;;;;;;;;;38.58;20.29;98989.50;4883606;29;19927;-82
2023/05/26 12:51:24;;;;;;;;;;;;;;;39.07;19.97;98986.03;4888453;29;19931;-81
2023/05/26 12:53:52;;;;;;;;;;;;;;;39.79;19.49;98981.53;4893870;29;19927;-81
2023/05/26 12:56:19;;;;;;;;;;;;;;;40.30;18.27;98982.56;4886983;29;19970;-82
2023/05/26 12:58:45;;;;;;;;;;;;;;;40.07;16.83;98975.09;4877072;29;19934;-81
2023/05/26 13:01:13;;;;;;;;;;;;;;;39.05;17.77;98968.78;4885574;29;19927;-82
2023/05/26 13:03:40;;;;;;;;;;;;;;;36.02;20.55;98978.91;4893974;29;19927;-81
2023/05/26 13:06:08;;;;;;;;;;;;;;;35.35;20.00;98976.28;4887867;29;19928;-82
2023/05/26 13:08:35;;;;;;;;;;;;;;;36.66;18.78;98983.03;4887732;29;19927;-81
2023/05/26 13:11:02;;;;;;;;;;;;;;;38.29;18.47;98975.19;4883474;29;19935;-80
2023/05/26 13:13:29;;;;;;;;;;;;;;;39.06;16.90;98973.19;4886095;29;19927;-81
2023/05/26 13:15:56;;;;;;;;;;;;;;;37.13;18.26;98976.78;4887658;29;19927;-80
2023/05/26 13:18:23;;;;;;;;;;;;;;;34.75;20.44;98974.66;4888104;29;19927;-80
2023/05/26 13:20:50;;;;;;;;;;;;;;;33.11;21.85;98970.88;4881813;29;20399;-81
2023/05/26 13:23:17;;;;;;;;;;;;;;;32.03;22.63;98972.41;4879600;29;19927;-81